Time;durP1;ratioP1;P1;durP2;ratioP2;P2;SDS_P1;SDS_P2;PMS_P1;PMS_P2;Temp;Humidity;BMP_temperature;BMP_pressure;BME280_temperature;BME280_humidity;BME280_pressure;Samples;Min_cycle;Max_cycle;Signal;HPM_P1;HPM_P2
2021/11/08 00:02:20;;;;;;;14.03;6.07;;;7.40;1.00;8.20;100853.00;;;;4926693;29;20469;-75
2021/11/08 00:04:50;;;;;;;11.97;5.53;;;7.40;1.00;8.20;100823.00;;;;4943773;29;21055;-75
2021/11/08 00:07:20;;;;;;;16.60;5.90;;;7.40;1.00;8.20;100827.00;;;;4929987;29;20469;-75
2021/11/08 00:09:48;;;;;;;13.30;6.40;;;7.30;1.00;8.10;100848.00;;;;4926881;29;21030;-75
2021/11/08 00:12:18;;;;;;;11.93;6.30;;;7.30;1.00;8.10;100856.00;;;;4923584;29;20557;-77
2021/11/08 00:14:47;;;;;;;15.57;6.40;;;7.20;1.00;8.00;100825.00;;;;4923458;29;20465;-76
2021/11/08 00:17:28;;;;;;;15.77;6.37;;;7.10;1.00;7.90;100848.00;;;;4926467;29;20493;-76
2021/11/08 00:20:06;;;;;;;14.37;6.33;;;7.10;1.00;7.80;100867.00;;;;4935426;29;20477;-79
2021/11/08 00:22:38;;;;;;;17.57;6.80;;;6.90;1.00;7.70;100814.00;;;;4924987;29;20974;-77
2021/11/08 00:25:08;;;;;;;14.80;6.63;;;6.90;1.00;7.70;100869.00;;;;4914385;29;20485;-76
2021/11/08 00:27:37;;;;;;;16.40;7.27;;;6.80;1.00;7.70;100865.00;;;;4924360;29;20465;-76
2021/11/08 00:30:07;;;;;;;12.63;7.23;;;6.80;1.00;7.60;100850.00;;;;4923893;29;20481;-78
2021/11/08 00:32:37;;;;;;;12.97;7.20;;;6.80;1.00;7.60;100852.00;;;;4925225;29;20935;-76
2021/11/08 00:35:06;;;;;;;12.37;7.00;;;6.70;1.00;7.40;100882.00;;;;4929294;29;20948;-78
2021/11/08 00:37:35;;;;;;;14.63;7.03;;;6.70;1.00;7.60;100881.00;;;;4931116;29;20472;-77
2021/11/08 00:40:06;;;;;;;16.03;6.70;;;6.80;1.00;7.70;100850.00;;;;4920871;29;20604;-78
2021/11/08 00:42:35;;;;;;;13.57;6.83;;;6.70;1.00;7.80;100883.00;;;;4937341;29;20465;-77
2021/11/08 00:45:05;;;;;;;15.73;7.10;;;6.80;1.00;7.90;100879.00;;;;4932946;29;20567;-78
2021/11/08 00:47:34;;;;;;;14.93;6.70;;;6.80;1.00;7.70;100883.00;;;;4957026;28;20452;-75
2021/11/08 00:50:06;;;;;;;11.93;6.27;;;6.90;1.00;8.00;100855.00;;;;4947959;28;20537;-76
2021/11/08 00:52:36;;;;;;;13.40;7.00;;;6.90;1.00;7.80;100912.00;;;;4931068;29;20453;-77
2021/11/08 00:55:05;;;;;;;16.80;6.67;;;7.00;1.00;8.10;100888.00;;;;4925959;29;20461;-78
2021/11/08 00:57:35;;;;;;;15.37;6.77;;;7.10;1.00;8.20;100887.00;;;;4930763;29;20467;-78
2021/11/08 01:00:06;;;;;;;14.17;6.60;;;7.10;1.00;8.30;100898.00;;;;4930818;29;20520;-78
2021/11/08 01:02:35;;;;;;;12.73;6.53;;;7.10;1.00;8.30;100883.00;;;;4929920;29;20462;-77
2021/11/08 01:05:07;;;;;;;10.13;5.83;;;7.20;1.00;8.40;100885.00;;;;4932454;29;20569;-76
2021/11/08 01:07:35;;;;;;;10.97;6.70;;;7.20;1.00;8.40;100879.00;;;;4937540;29;20461;-77
2021/11/08 01:10:06;;;;;;;16.87;5.90;;;7.30;1.00;8.40;100898.00;;;;4937619;29;20481;-77
2021/11/08 01:12:34;;;;;;;12.73;6.57;;;7.20;1.00;8.40;100894.00;;;;4943573;29;20453;-79
2021/11/08 01:15:05;;;;;;;17.13;6.33;;;7.30;1.00;8.20;100856.00;;;;4935662;29;21623;-77
2021/11/08 01:17:34;;;;;;;14.27;6.10;;;7.40;1.00;8.40;100896.00;;;;4928953;29;21031;-77
2021/11/08 01:20:07;;;;;;;12.57;6.27;;;7.40;1.00;8.50;100904.00;;;;4938849;29;20477;-75
2021/11/08 01:22:35;;;;;;;14.27;5.93;;;7.50;1.00;8.50;100886.00;;;;4925977;29;20464;-76
2021/11/08 01:25:07;;;;;;;17.17;6.10;;;7.50;1.00;8.50;100888.00;;;;4923614;29;20523;-76
2021/11/08 01:27:40;;;;;;;13.60;6.07;;;7.50;1.00;8.50;100888.00;;;;4930901;29;20471;-78
2021/11/08 01:30:14;;;;;;;13.50;5.60;;;7.50;1.00;8.60;100911.00;;;;4927954;29;20469;-78
2021/11/08 01:32:52;;;;;;;17.73;5.90;;;7.60;1.00;8.60;100892.00;;;;4926258;29;20552;-78
2021/11/08 01:35:30;;;;;;;14.83;5.90;;;7.60;1.00;8.70;100897.00;;;;4953574;29;20471;-75
2021/11/08 01:38:07;;;;;;;11.53;5.40;;;7.60;1.00;8.70;100890.00;;;;4948864;29;20963;-77
2021/11/08 01:40:37;;;;;;;12.40;5.93;;;7.70;1.00;8.70;100897.00;;;;4926620;29;20498;-77
2021/11/08 01:43:08;;;;;;;13.00;5.70;;;7.60;1.00;8.80;100888.00;;;;4919744;29;20456;-76
2021/11/08 01:45:37;;;;;;;16.40;5.90;;;7.70;1.00;8.70;100897.00;;;;4926353;29;20568;-77
2021/11/08 01:48:10;;;;;;;15.20;5.53;;;7.60;1.00;8.70;100869.00;;;;4919748;29;20446;-78
2021/11/08 01:50:43;;;;;;;16.37;6.47;;;7.60;1.00;8.70;100909.00;;;;4935510;29;21048;-77
2021/11/08 01:53:12;;;;;;;14.53;5.20;;;7.70;1.00;8.70;100884.00;;;;4934678;29;20454;-76
2021/11/08 01:55:40;;;;;;;8.30;5.37;;;7.60;1.00;8.70;100871.00;;;;4929621;29;20461;-78
2021/11/08 01:58:09;;;;;;;15.07;5.70;;;7.60;1.00;8.70;100922.00;;;;4934053;29;20461;-77
2021/11/08 02:00:38;;;;;;;12.57;5.80;;;7.60;1.00;8.60;100910.00;;;;4926137;29;20508;-78
2021/11/08 02:03:06;;;;;;;17.37;6.67;;;7.60;1.00;8.70;100908.00;;;;4925525;29;20501;-78
2021/11/08 02:05:35;;;;;;;11.97;5.13;;;7.60;1.00;8.70;100874.00;;;;4925422;29;20489;-78
2021/11/08 02:08:05;;;;;;;13.00;6.60;;;7.60;1.00;8.80;100911.00;;;;4926298;29;20457;-78
2021/11/08 02:10:33;;;;;;;14.10;5.90;;;7.70;1.00;8.80;100902.00;;;;4925184;29;20600;-76
2021/11/08 02:13:02;;;;;;;14.03;5.37;;;7.60;1.00;8.80;100908.00;;;;4926140;29;20454;-76
2021/11/08 02:15:32;;;;;;;15.33;5.63;;;7.70;1.00;8.80;100918.00;;;;4921336;29;20476;-78
2021/11/08 02:18:00;;;;;;;11.20;5.17;;;7.70;1.00;8.90;100875.00;;;;4924205;29;20831;-77
2021/11/08 02:20:32;;;;;;;17.20;6.37;;;7.70;1.00;8.90;100888.00;;;;4926490;29;20485;-76
2021/11/08 02:23:05;;;;;;;12.03;6.20;;;7.90;1.00;8.90;100899.00;;;;4923719;29;20462;-77
2021/11/08 02:25:37;;;;;;;15.30;6.00;;;7.80;1.00;8.90;100906.00;;;;4925106;29;20480;-77
2021/11/08 02:28:09;;;;;;;12.47;5.73;;;7.80;1.00;8.90;100916.00;;;;4935409;29;20976;-77
2021/11/08 02:30:38;;;;;;;15.77;5.10;;;7.80;1.00;9.00;100921.00;;;;4924641;29;20571;-77
2021/11/08 02:33:09;;;;;;;15.63;5.97;;;7.80;1.00;9.00;100928.00;;;;4928310;29;20564;-77
2021/11/08 02:35:39;;;;;;;16.97;5.43;;;7.80;1.00;8.90;100923.00;;;;4931034;29;20445;-76
2021/11/08 02:38:13;;;;;;;21.40;5.83;;;7.90;1.00;9.10;100921.00;;;;4925190;29;20488;-77
2021/11/08 02:40:42;;;;;;;14.17;6.13;;;7.90;1.00;9.00;100912.00;;;;4933626;29;21098;-75
2021/11/08 02:43:19;;;;;;;11.77;5.27;;;8.00;1.00;9.10;100935.00;;;;4921832;29;20467;-75
2021/11/08 02:45:51;;;;;;;12.53;5.13;;;8.00;1.00;9.00;100896.00;;;;4923914;29;20504;-77
2021/11/08 02:48:20;;;;;;;12.10;4.87;;;8.00;1.00;9.00;100904.00;;;;4922113;29;21557;-75
2021/11/08 02:50:55;;;;;;;13.97;5.20;;;8.00;1.00;9.00;100931.00;;;;4944224;29;20560;-77
2021/11/08 02:53:25;;;;;;;17.60;5.50;;;8.00;1.00;9.00;100925.00;;;;4928226;29;20541;-75
2021/11/08 02:55:54;;;;;;;13.47;5.80;;;7.90;1.00;8.80;100923.00;;;;4926279;29;20466;-77
2021/11/08 02:58:27;;;;;;;12.90;5.27;;;7.90;1.00;8.80;100894.00;;;;4927517;29;20457;-76
2021/11/08 03:00:56;;;;;;;12.93;6.07;;;7.70;1.00;8.60;100936.00;;;;4940382;28;21526;-77
2021/11/08 03:03:33;;;;;;;13.67;6.30;;;7.60;1.00;8.60;100924.00;;;;4930939;29;20464;-78
2021/11/08 03:06:10;;;;;;;14.53;6.20;;;7.50;1.00;8.60;100906.00;;;;4925885;29;21255;-78
2021/11/08 03:08:39;;;;;;;14.57;6.23;;;7.40;1.00;8.70;100890.00;;;;4926760;29;20453;-77
2021/11/08 03:11:08;;;;;;;17.57;6.43;;;7.40;1.00;8.70;100894.00;;;;4932826;29;20541;-77
2021/11/08 03:13:39;;;;;;;13.30;5.90;;;7.60;1.00;8.60;100934.00;;;;4924007;29;20671;-77
2021/11/08 03:16:17;;;;;;;15.40;6.60;;;7.50;1.00;8.50;100928.00;;;;4919771;29;20461;-77
2021/11/08 03:18:52;;;;;;;14.50;5.67;;;7.50;1.00;8.60;100900.00;;;;4935201;29;20991;-76
2021/11/08 03:21:23;;;;;;;13.47;5.87;;;7.50;1.00;8.60;100925.00;;;;4947829;28;20500;-76
2021/11/08 03:23:54;;;;;;;13.37;5.80;;;7.50;1.00;8.50;100899.00;;;;4942646;29;20467;-76
2021/11/08 03:26:35;;;;;;;16.43;6.53;;;7.50;1.00;8.40;100935.00;;;;4932885;29;20516;-77
2021/11/08 03:29:05;;;;;;;14.63;5.93;;;7.50;1.00;8.50;100892.00;;;;4932793;29;20468;-77
2021/11/08 03:31:35;;;;;;;13.93;6.17;;;7.40;1.00;8.30;100928.00;;;;4933596;29;20584;-78
2021/11/08 03:34:03;;;;;;;12.70;5.47;;;7.30;1.00;8.30;100921.00;;;;4919360;29;20457;-78
2021/11/08 03:36:33;;;;;;;12.73;6.47;;;7.30;1.00;8.20;100929.00;;;;4925999;29;20461;-77
2021/11/08 03:39:02;;;;;;;13.97;6.50;;;7.20;1.00;7.70;100941.00;;;;4916092;29;20857;-77
2021/11/08 03:41:31;;;;;;;14.00;6.77;;;7.10;1.00;8.00;100912.00;;;;4924460;29;20493;-77
2021/11/08 03:44:01;;;;;;;20.53;6.90;;;7.10;1.00;8.10;100942.00;;;;4921784;29;20609;-78
2021/11/08 03:46:29;;;;;;;19.40;7.40;;;7.10;1.00;8.20;100933.00;;;;4922246;29;20508;-76
2021/11/08 03:48:58;;;;;;;17.90;6.80;;;7.10;1.00;8.10;100910.00;;;;4930580;29;20468;-78
2021/11/08 03:51:27;;;;;;;21.10;7.77;;;7.00;1.00;8.10;100946.00;;;;4923918;29;20560;-77
2021/11/08 03:53:57;;;;;;;14.27;7.17;;;7.00;1.00;8.00;100944.00;;;;4923613;29;20578;-78
2021/11/08 03:56:25;;;;;;;16.50;7.40;;;7.00;1.00;7.90;100931.00;;;;4919707;29;20852;-78
2021/11/08 03:58:54;;;;;;;14.37;7.60;;;6.80;1.00;7.90;100943.00;;;;4923252;29;20489;-76
2021/11/08 04:01:23;;;;;;;14.90;6.97;;;6.80;1.00;7.90;100963.00;;;;4926636;29;21009;-78
2021/11/08 04:03:51;;;;;;;18.50;7.80;;;6.80;1.00;7.90;100964.00;;;;4939258;29;20802;-77
2021/11/08 04:06:20;;;;;;;15.23;7.80;;;6.80;1.00;7.90;100964.00;;;;4936636;29;20485;-77
2021/11/08 04:08:48;;;;;;;20.93;8.00;;;6.80;1.00;7.90;100924.00;;;;4935253;29;20541;-77
2021/11/08 04:11:18;;;;;;;16.93;7.40;;;6.80;1.00;8.00;100985.00;;;;4936457;29;20477;-77
2021/11/08 04:13:47;;;;;;;16.20;7.30;;;6.80;1.00;8.10;100928.00;;;;4925925;29;20468;-77
2021/11/08 04:16:17;;;;;;;14.20;7.20;;;6.90;1.00;8.20;100987.00;;;;4935064;29;20989;-77
2021/11/08 04:18:50;;;;;;;12.93;7.43;;;6.90;1.00;8.30;100985.00;;;;4932053;29;20483;-78
2021/11/08 04:21:19;;;;;;;11.97;6.70;;;6.90;1.00;8.20;100934.00;;;;4930961;29;20481;-76
2021/11/08 04:23:47;;;;;;;21.63;7.63;;;7.00;1.00;8.30;100984.00;;;;4936936;29;20453;-76
2021/11/08 04:26:19;;;;;;;14.83;7.27;;;7.00;1.00;8.30;100980.00;;;;4937399;29;20496;-77
2021/11/08 04:28:53;;;;;;;15.50;7.17;;;7.00;1.00;8.20;100993.00;;;;4937164;29;20461;-77
2021/11/08 04:31:22;;;;;;;12.80;7.40;;;7.10;1.00;8.20;100974.00;;;;4928739;29;20511;-77
2021/11/08 04:33:53;;;;;;;14.70;7.60;;;7.10;1.00;8.20;100964.00;;;;4935891;29;20461;-77
2021/11/08 04:39:17;;;;;;;12.00;6.80;;;7.00;1.00;8.20;100982.00;;;;4920440;29;20463;-77
2021/11/08 04:41:53;;;;;;;17.80;7.20;;;7.00;1.00;8.30;100992.00;;;;4937862;29;20460;-77
2021/11/08 04:49:54;;;;;;;18.97;8.07;;;7.10;1.00;8.40;100991.00;;;;4923320;29;20516;-76
2021/11/08 04:52:36;;;;;;;14.03;6.97;;;7.10;1.00;8.40;100990.00;;;;4928544;29;20619;-77
2021/11/08 04:55:11;;;;;;;18.93;7.43;;;7.10;1.00;8.40;100989.00;;;;4929554;29;20480;-78
2021/11/08 05:22:58;;;;;;;16.60;7.73;;;7.00;1.00;8.10;101034.00;;;;4956191;28;20520;-76
2021/11/08 05:27:49;;;;;;;15.10;7.07;;;6.90;1.00;8.00;101018.00;;;;4945960;28;20442;-76
2021/11/08 05:31:08;;;;;;;16.13;7.40;;;6.90;1.00;8.10;101024.00;;;;4922181;29;20576;-77
2021/11/08 05:33:37;;;;;;;18.20;7.80;;;6.90;1.00;8.10;101019.00;;;;4931009;29;20450;-78
2021/11/08 05:36:06;;;;;;;16.70;8.00;;;6.90;1.00;8.10;100993.00;;;;4932353;29;20517;-78
2021/11/08 05:38:34;;;;;;;18.27;8.20;;;6.90;1.00;8.10;100995.00;;;;4942640;29;21027;-78
2021/11/08 05:41:03;;;;;;;17.50;8.60;;;6.90;1.00;8.10;101023.00;;;;4945907;29;20499;-78
2021/11/08 05:43:31;;;;;;;15.70;7.37;;;6.90;1.00;8.10;101004.00;;;;4937984;29;20471;-77
2021/11/08 05:46:00;;;;;;;22.33;8.40;;;6.90;1.00;8.10;101023.00;;;;4934935;29;20596;-76
2021/11/08 05:48:30;;;;;;;13.97;8.03;;;6.90;1.00;8.10;101014.00;;;;4933687;29;20472;-77
2021/11/08 05:50:58;;;;;;;20.17;8.10;;;7.00;1.00;8.10;100996.00;;;;4925516;29;20488;-77
2021/11/08 05:53:26;;;;;;;16.20;7.90;;;7.00;1.00;8.20;101008.00;;;;4926570;29;20465;-78
2021/11/08 05:56:05;;;;;;;15.63;7.90;;;7.00;1.00;8.10;100997.00;;;;4927627;29;20461;-77
2021/11/08 05:58:54;;;;;;;12.80;8.20;;;7.10;1.00;8.10;101031.00;;;;4923698;29;20468;-77
2021/11/08 06:51:21;;;;;;;20.13;9.00;;;7.30;1.00;8.50;101065.00;;;;4927542;29;20850;-78
2021/11/08 06:53:55;;;;;;;19.60;8.30;;;7.30;1.00;8.30;101022.00;;;;4927960;29;20464;-78
2021/11/08 06:56:28;;;;;;;14.67;8.47;;;7.30;1.00;8.40;101036.00;;;;4928602;29;20462;-76
2021/11/08 06:58:57;;;;;;;22.80;9.23;;;7.40;1.00;8.40;101068.00;;;;4927726;29;20473;-77
2021/11/08 07:01:28;;;;;;;18.10;8.43;;;7.30;1.00;8.40;101069.00;;;;4929341;29;20476;-76
2021/11/08 07:03:59;;;;;;;18.43;9.13;;;7.30;1.00;8.50;101029.00;;;;4926373;29;20461;-76
2021/11/08 07:06:27;;;;;;;16.87;8.67;;;7.40;1.00;8.50;101066.00;;;;4927024;29;20472;-77
2021/11/08 07:08:57;;;;;;;17.40;8.50;;;7.40;1.00;8.50;101070.00;;;;4926302;29;20461;-78
2021/11/08 07:11:26;;;;;;;18.83;8.33;;;7.40;1.00;8.50;101078.00;;;;4927820;29;20485;-77
2021/11/08 07:13:54;;;;;;;20.80;8.63;;;7.40;1.00;8.50;101050.00;;;;4922548;29;20469;-78
2021/11/08 07:16:22;;;;;;;18.07;9.27;;;7.40;1.00;8.60;101102.00;;;;4941805;29;20464;-78
2021/11/08 07:18:51;;;;;;;18.90;8.97;;;7.40;1.00;8.60;101124.00;;;;4945000;29;21143;-77
2021/11/08 07:21:19;;;;;;;15.33;9.10;;;7.40;1.00;8.70;101087.00;;;;4930654;29;21013;-79
2021/11/08 07:23:48;;;;;;;23.93;9.17;;;7.60;1.00;8.70;101099.00;;;;4924170;29;20493;-79
2021/11/08 07:26:17;;;;;;;22.23;10.23;;;7.50;1.00;8.80;101109.00;;;;4927787;29;20457;-79
2021/11/08 07:28:46;;;;;;;17.40;9.77;;;7.60;1.00;8.80;101112.00;;;;4922032;29;20486;-78
2021/11/08 07:31:14;;;;;;;14.53;8.10;;;7.60;1.00;8.80;101103.00;;;;4935719;29;20479;-79
2021/11/08 07:33:43;;;;;;;15.87;8.47;;;7.60;1.00;8.80;101105.00;;;;4939212;29;20588;-77
2021/11/08 07:36:12;;;;;;;18.20;9.40;;;7.60;1.00;8.50;101119.00;;;;4938799;29;20461;-77
2021/11/08 07:38:40;;;;;;;15.53;8.40;;;7.60;1.00;8.80;101063.00;;;;4937088;29;20456;-77
2021/11/08 07:41:10;;;;;;;20.73;8.50;;;7.60;1.00;8.90;101076.00;;;;4941214;29;20500;-78
2021/11/08 07:43:40;;;;;;;19.23;9.57;;;7.60;1.00;8.90;101104.00;;;;4924141;29;20521;-77
2021/11/08 07:46:09;;;;;;;18.90;9.80;;;7.70;1.00;9.10;101122.00;;;;4925439;29;20480;-78
2021/11/08 07:48:40;;;;;;;18.20;9.27;;;7.70;1.00;9.20;101118.00;;;;4921830;29;20513;-78
2021/11/08 07:51:09;;;;;;;16.63;8.00;;;7.90;1.00;9.30;101123.00;;;;4928155;29;20512;-77
2021/11/08 07:53:38;;;;;;;15.40;8.10;;;8.00;1.00;9.40;101154.00;;;;4923887;29;20581;-78
2021/11/08 07:56:08;;;;;;;18.63;9.47;;;8.00;1.00;9.50;101132.00;;;;4929346;29;20465;-78
2021/11/08 07:58:39;;;;;;;16.43;8.77;;;8.10;1.00;9.60;101118.00;;;;4926975;29;20457;-77
2021/11/08 08:01:09;;;;;;;17.43;8.77;;;8.20;1.00;9.50;101136.00;;;;4931715;29;21075;-78
2021/11/08 08:03:38;;;;;;;17.50;8.73;;;8.20;1.00;9.50;101149.00;;;;4925733;29;20536;-78
2021/11/08 08:06:08;;;;;;;15.03;8.20;;;8.20;1.00;9.50;101133.00;;;;4948996;29;20486;-79
2021/11/08 08:08:37;;;;;;;19.17;8.80;;;8.20;1.00;9.60;101118.00;;;;4929471;29;20556;-78
2021/11/08 08:11:07;;;;;;;17.77;8.90;;;8.20;1.00;9.60;101129.00;;;;4918013;29;20698;-78
2021/11/08 08:13:37;;;;;;;18.13;8.73;;;8.30;1.00;9.60;101143.00;;;;4928242;29;21045;-78
2021/11/08 08:16:12;;;;;;;19.17;8.97;;;8.30;1.00;9.60;101099.00;;;;4938703;29;20484;-78
2021/11/08 08:18:42;;;;;;;19.10;9.63;;;8.30;1.00;9.60;101119.00;;;;4924239;29;20469;-78
2021/11/08 08:21:11;;;;;;;16.03;9.00;;;8.40;1.00;9.60;101137.00;;;;4920249;29;20481;-78
2021/11/08 08:24:00;;;;;;;21.33;9.03;;;8.40;1.00;9.60;101116.00;;;;4927065;29;20480;-78
2021/11/08 08:26:32;;;;;;;16.37;8.70;;;8.40;1.00;9.60;101156.00;;;;4928155;29;20943;-76
2021/11/08 08:29:05;;;;;;;17.00;8.13;;;8.40;1.00;9.70;101135.00;;;;4927209;29;20978;-75
2021/11/08 08:31:39;;;;;;;19.63;8.60;;;8.50;1.00;9.80;101151.00;;;;4923318;29;20490;-75
2021/11/08 08:34:10;;;;;;;18.30;9.80;;;8.60;1.00;10.00;101116.00;;;;4922898;29;20461;-77
2021/11/08 08:36:40;;;;;;;13.50;8.77;;;8.70;1.00;10.10;101150.00;;;;4941725;29;20467;-78
2021/11/08 08:39:09;;;;;;;14.27;8.30;;;8.80;1.00;10.10;101157.00;;;;4946194;29;20516;-75
2021/11/08 08:41:39;;;;;;;19.27;9.70;;;8.80;1.00;10.10;101115.00;;;;4951649;29;20562;-78
2021/11/08 08:44:12;;;;;;;19.67;8.80;;;8.90;1.00;10.00;101148.00;;;;4942766;29;20495;-77
2021/11/08 08:46:44;;;;;;;14.93;8.33;;;8.90;1.00;10.10;101151.00;;;;4932126;29;20461;-76
2021/11/08 08:49:22;;;;;;;17.90;9.30;;;8.90;1.00;10.30;101155.00;;;;4939316;29;20469;-77
2021/11/08 08:51:52;;;;;;;16.07;9.70;;;9.10;1.00;10.50;101140.00;;;;4947408;29;20464;-79
2021/11/08 08:54:21;;;;;;;20.70;8.93;;;9.20;1.00;10.80;101168.00;;;;4932019;29;20461;-78
2021/11/08 08:56:52;;;;;;;17.43;8.80;;;9.50;1.00;11.10;101153.00;;;;4933622;29;20484;-78
2021/11/08 08:59:22;;;;;;;28.83;8.63;;;9.60;1.00;11.30;101159.00;;;;4942997;29;20512;-77
2021/11/08 09:01:54;;;;;;;17.43;8.40;;;9.80;1.00;11.30;101162.00;;;;4936299;29;20461;-78
2021/11/08 09:04:24;;;;;;;15.70;8.30;;;9.90;1.00;11.30;101159.00;;;;4952690;29;20879;-77
2021/11/08 09:06:53;;;;;;;21.73;9.53;;;9.80;1.00;10.70;101172.00;;;;4935819;29;20473;-78
2021/11/08 09:09:21;;;;;;;13.73;7.80;;;9.70;1.00;10.90;101180.00;;;;4938110;29;20986;-76
2021/11/08 09:11:50;;;;;;;19.00;8.87;;;9.60;1.00;10.80;101175.00;;;;4940880;29;20505;-77
2021/11/08 09:14:18;;;;;;;17.97;9.27;;;9.50;1.00;10.90;101205.00;;;;4948535;29;20477;-78
2021/11/08 09:16:47;;;;;;;19.53;8.87;;;9.50;1.00;10.90;101166.00;;;;4934012;29;20457;-77
2021/11/08 09:19:17;;;;;;;22.23;9.07;;;9.50;1.00;10.80;101186.00;;;;4936366;29;20461;-77
2021/11/08 09:21:45;;;;;;;24.23;10.67;;;9.60;1.00;10.90;101195.00;;;;4947804;29;20509;-77
2021/11/08 09:24:14;;;;;;;20.63;9.00;;;9.60;1.00;11.00;101192.00;;;;4933959;29;20560;-78
2021/11/08 09:26:43;;;;;;;17.37;9.60;;;9.60;1.00;10.90;101197.00;;;;4930740;29;20464;-77
2021/11/08 09:29:11;;;;;;;18.70;9.70;;;9.60;1.00;10.70;101137.00;;;;4933161;29;20544;-76
2021/11/08 09:31:40;;;;;;;17.30;8.73;;;9.50;1.00;10.50;101181.00;;;;4931035;29;20477;-78
2021/11/08 09:34:10;;;;;;;17.53;10.13;;;9.50;1.00;10.50;101195.00;;;;4929911;29;20466;-77
2021/11/08 09:36:41;;;;;;;16.83;9.10;;;9.40;1.00;10.50;101169.00;;;;4926261;28;20467;-78
2021/11/08 09:39:22;;;;;;;17.63;9.40;;;9.40;1.00;10.50;101189.00;;;;4929994;29;20481;-78
2021/11/08 09:41:51;;;;;;;16.07;9.53;;;9.40;1.00;10.60;101200.00;;;;4928357;29;20549;-79
2021/11/08 09:44:20;;;;;;;19.20;10.10;;;9.50;1.00;10.80;101181.00;;;;4926583;29;20467;-78
2021/11/08 09:46:52;;;;;;;16.03;8.97;;;9.60;1.00;10.70;101195.00;;;;4923382;29;20473;-78
2021/11/08 09:49:21;;;;;;;18.60;9.30;;;9.70;1.00;10.80;101167.00;;;;4929516;29;20491;-76
2021/11/08 09:51:53;;;;;;;21.20;9.70;;;9.60;1.00;10.90;101187.00;;;;4932032;29;20854;-76
2021/11/08 09:54:27;;;;;;;18.00;10.10;;;9.60;1.00;11.10;101131.00;;;;4932081;29;20458;-77
2021/11/08 09:56:59;;;;;;;17.60;9.13;;;9.80;1.00;11.50;101193.00;;;;4931104;29;20551;-77
2021/11/08 09:59:32;;;;;;;22.37;10.40;;;10.30;1.00;11.70;101197.00;;;;4933411;29;20509;-76
2021/11/08 10:02:03;;;;;;;16.60;8.73;;;10.40;1.00;11.80;101137.00;;;;4935880;29;20457;-78
2021/11/08 10:04:32;;;;;;;17.53;9.00;;;10.60;1.00;11.70;101190.00;;;;4931041;29;20450;-79
2021/11/08 10:07:02;;;;;;;19.17;9.37;;;10.50;1.00;11.80;101195.00;;;;4933407;29;20541;-78
2021/11/08 10:09:31;;;;;;;17.10;9.30;;;10.50;1.00;11.90;101166.00;;;;4930627;29;20509;-78
2021/11/08 10:12:01;;;;;;;24.43;9.40;;;10.60;1.00;12.30;101198.00;;;;4940599;29;20462;-81
2021/11/08 10:14:30;;;;;;;15.50;8.10;;;10.80;1.00;12.20;101184.00;;;;4930089;29;20545;-78
2021/11/08 10:17:01;;;;;;;17.50;8.80;;;11.00;1.00;12.40;101172.00;;;;4928770;29;20457;-78
2021/11/08 10:19:34;;;;;;;19.20;8.80;;;10.90;1.00;12.40;101182.00;;;;4931727;29;20506;-80
2021/11/08 10:22:06;;;;;;;13.93;7.93;;;10.90;1.00;12.70;101190.00;;;;4952211;29;20472;-79
2021/11/08 10:24:38;;;;;;;24.47;9.60;;;11.10;1.00;12.80;101187.00;;;;4947150;29;20525;-78
2021/11/08 10:27:11;;;;;;;18.60;8.00;;;11.30;1.00;12.70;101168.00;;;;4953339;29;20469;-78
2021/11/08 10:29:45;;;;;;;12.60;7.17;;;11.40;1.00;13.00;101152.00;;;;4940783;29;20574;-78
2021/11/08 10:32:16;;;;;;;22.90;9.60;;;11.50;1.00;13.00;101184.00;;;;4932417;29;20525;-78
2021/11/08 10:34:53;;;;;;;19.33;8.50;;;11.50;1.00;13.10;101188.00;;;;4931675;29;20457;-80
2021/11/08 10:37:31;;;;;;;22.67;9.23;;;11.60;1.00;13.30;101175.00;;;;4953640;29;20539;-78
2021/11/08 10:40:01;;;;;;;12.13;7.50;;;11.60;1.00;13.30;101182.00;;;;4940992;29;20512;-79
2021/11/08 10:42:35;;;;;;;13.50;7.60;;;11.70;1.00;13.30;101185.00;;;;4939684;29;20525;-79
2021/11/08 10:45:05;;;;;;;11.77;7.13;;;11.80;1.00;13.30;101180.00;;;;4926910;29;20464;-77
2021/11/08 10:47:36;;;;;;;22.30;7.93;;;11.80;1.00;13.40;101184.00;;;;4931637;29;20509;-77
2021/11/08 10:50:15;;;;;;;22.33;7.60;;;11.80;1.00;13.40;101138.00;;;;4931963;29;20500;-78
2021/11/08 10:52:45;;;;;;;18.60;7.70;;;11.80;1.00;13.30;101187.00;;;;4944289;29;20468;-78
2021/11/08 10:55:13;;;;;;;17.30;7.37;;;11.80;1.00;13.50;101136.00;;;;4944819;29;20465;-79
2021/11/08 10:57:42;;;;;;;19.73;7.77;;;11.90;1.00;13.60;101188.00;;;;4931223;29;20516;-78
2021/11/08 11:00:14;;;;;;;21.40;9.23;;;12.00;1.00;13.60;101148.00;;;;4942895;29;20537;-77
2021/11/08 11:02:43;;;;;;;19.27;7.30;;;12.10;1.00;13.60;101189.00;;;;4936306;29;20469;-77
2021/11/08 11:05:16;;;;;;;18.17;6.83;;;12.10;1.00;13.70;101185.00;;;;4946022;29;20686;-78
2021/11/08 11:07:46;;;;;;;26.87;8.70;;;12.10;1.00;13.70;101185.00;;;;4944336;29;20454;-78
2021/11/08 11:10:20;;;;;;;21.27;7.40;;;12.20;1.00;13.90;101148.00;;;;4936127;29;20484;-79
2021/11/08 11:12:51;;;;;;;16.57;7.20;;;12.30;1.00;13.90;101164.00;;;;4939270;29;21065;-79
2021/11/08 11:15:26;;;;;;;18.40;7.47;;;12.30;1.00;14.00;101175.00;;;;4937326;29;20489;-79
2021/11/08 11:17:58;;;;;;;15.83;7.57;;;12.40;1.00;14.00;101153.00;;;;4943926;29;20457;-78
2021/11/08 11:20:32;;;;;;;19.10;7.60;;;12.40;1.00;14.10;101093.00;;;;4943924;29;20485;-77
2021/11/08 11:23:08;;;;;;;13.70;6.60;;;12.50;1.00;14.00;101151.00;;;;4945210;29;20458;-77
2021/11/08 11:25:42;;;;;;;13.80;8.50;;;12.60;1.00;14.20;101141.00;;;;4943282;29;20453;-78
2021/11/08 11:28:15;;;;;;;20.13;7.17;;;12.60;1.00;14.20;101146.00;;;;4925351;29;20497;-77
2021/11/08 11:30:45;;;;;;;19.20;7.53;;;12.60;1.00;14.20;101161.00;;;;4945787;29;20517;-77
2021/11/08 11:33:18;;;;;;;17.07;7.23;;;12.60;1.00;14.20;101160.00;;;;4934135;29;20489;-78
2021/11/08 11:35:50;;;;;;;15.20;6.50;;;12.60;1.00;14.20;101168.00;;;;4920143;29;20562;-79
2021/11/08 11:38:24;;;;;;;12.80;6.03;;;12.60;1.00;14.20;101161.00;;;;4921917;29;20458;-76
2021/11/08 11:40:59;;;;;;;17.03;7.57;;;12.60;1.00;14.40;101162.00;;;;4924020;29;20493;-78
2021/11/08 11:43:31;;;;;;;20.77;8.80;;;12.60;1.00;14.40;101162.00;;;;4927814;29;20489;-77
2021/11/08 11:46:01;;;;;;;14.70;6.80;;;12.70;1.00;14.40;101165.00;;;;4924043;29;20464;-78
2021/11/08 11:48:32;;;;;;;17.97;7.57;;;12.70;1.00;14.40;101163.00;;;;4916506;29;20462;-77
2021/11/08 11:51:13;;;;;;;14.40;6.63;;;12.70;1.00;14.40;101165.00;;;;4934845;29;20492;-78
2021/11/08 11:53:43;;;;;;;19.57;7.20;;;12.60;1.00;14.30;101141.00;;;;4933582;29;20469;-77
2021/11/08 11:56:13;;;;;;;16.33;6.70;;;12.60;1.00;14.20;101173.00;;;;4931873;29;20482;-80
2021/11/08 11:58:43;;;;;;;19.40;8.00;;;12.60;1.00;14.10;101149.00;;;;4935511;29;20458;-79
2021/11/08 12:01:16;;;;;;;15.70;5.60;;;12.50;1.00;14.00;101140.00;;;;4944923;29;20499;-78
2021/11/08 12:03:45;;;;;;;17.10;5.73;;;12.50;1.00;13.90;101147.00;;;;4932107;29;20473;-80
2021/11/08 12:06:24;;;;;;;11.80;5.70;;;12.40;1.00;13.80;101139.00;;;;4934515;29;20472;-79
2021/11/08 12:08:56;;;;;;;15.00;5.00;;;12.40;1.00;13.70;101090.00;;;;4935254;29;20460;-79
2021/11/08 12:11:30;;;;;;;10.50;5.10;;;12.30;1.00;13.70;101160.00;;;;4934355;29;20564;-79
2021/11/08 12:14:02;;;;;;;13.87;5.40;;;12.20;1.00;13.50;101120.00;;;;4926083;29;20452;-79
2021/11/08 12:16:33;;;;;;;16.47;5.33;;;12.20;1.00;13.60;101101.00;;;;4921512;29;20454;-79
2021/11/08 12:19:04;;;;;;;13.00;5.80;;;12.20;1.00;13.50;101152.00;;;;4926706;29;20469;-80
2021/11/08 12:21:37;;;;;;;17.80;5.17;;;12.20;1.00;13.40;101138.00;;;;4944455;29;20539;-80
2021/11/08 12:24:20;;;;;;;14.47;5.43;;;12.20;1.00;13.70;101151.00;;;;4934359;29;20454;-79
2021/11/08 12:27:01;;;;;;;19.50;5.90;;;12.20;1.00;13.80;101156.00;;;;4924532;29;20513;-79
2021/11/08 12:29:30;;;;;;;12.03;5.30;;;12.30;1.00;13.80;101163.00;;;;4928309;29;20529;-79
2021/11/08 12:32:09;;;;;;;12.53;5.37;;;12.30;1.00;13.80;101162.00;;;;4937793;29;20456;-81
2021/11/08 12:34:55;;;;;;;14.23;5.10;;;12.20;1.00;13.70;101162.00;;;;4934408;29;20478;-81
2021/11/08 12:37:36;;;;;;;15.57;5.83;;;12.20;1.00;13.70;101132.00;;;;4947140;29;20454;-80
2021/11/08 12:40:08;;;;;;;11.33;5.37;;;12.10;1.00;13.80;101169.00;;;;4949783;29;20504;-80
2021/11/08 12:42:41;;;;;;;16.33;6.20;;;12.10;1.00;13.80;101137.00;;;;4937349;29;20501;-79